Time;durP1;ratioP1;P1;durP2;ratioP2;P2;SDS_P1;SDS_P2;PMS_P1;PMS_P2;Temp;Humidity;BMP_temperature;BMP_pressure;BME280_temperature;BME280_humidity;BME280_pressure;Samples;Min_cycle;Max_cycle;Signal;HPM_P1;HPM_P2
2022/08/17 00:01:25;;;;;;;20.97;12.53;;;;;;;18.76;94.96;92403.25;5022969;28;20419;-78
2022/08/17 00:03:52;;;;;;;29.20;12.73;;;;;;;18.72;95.28;92400.47;5040876;28;20030;-78
2022/08/17 00:06:20;;;;;;;23.50;12.95;;;;;;;18.70;94.54;92402.69;5032069;28;20029;-79
2022/08/17 00:09:00;;;;;;;23.90;12.85;;;;;;;18.67;94.04;92406.03;5042216;28;20044;-79
2022/08/17 00:11:39;;;;;;;21.13;13.30;;;;;;;18.63;93.78;92402.50;5041475;28;20036;-78
2022/08/17 00:14:14;;;;;;;20.38;14.35;;;;;;;18.69;94.53;92414.44;5041754;28;20037;-78
2022/08/17 00:16:46;;;;;;;26.48;13.70;;;;;;;18.80;94.11;92418.16;5029682;28;20037;-79
2022/08/17 00:19:13;;;;;;;23.60;14.35;;;;;;;18.65;94.29;92424.16;5042134;28;20049;-79
2022/08/17 00:21:43;;;;;;;28.83;16.25;;;;;;;18.57;95.07;92448.91;5007091;28;20033;-78
2022/08/17 00:24:09;;;;;;;26.52;16.25;;;;;;;18.51;96.77;92459.75;5023110;28;20132;-78
2022/08/17 00:26:35;;;;;;;31.67;17.08;;;;;;;18.48;99.16;92471.00;5051512;28;20060;-78
2022/08/17 00:29:01;;;;;;;32.78;16.52;;;;;;;18.50;97.91;92465.38;5041906;28;20033;-78
2022/08/17 00:31:27;;;;;;;36.42;18.67;;;;;;;18.52;98.29;92450.69;5041235;28;20479;-78
2022/08/17 00:33:52;;;;;;;44.03;20.33;;;;;;;18.49;99.27;92450.59;5020441;28;20056;-77
2022/08/17 00:36:18;;;;;;;53.05;21.17;;;;;;;18.59;100.00;92455.41;4993173;28;20048;-78
2022/08/17 00:38:44;;;;;;;44.65;20.95;;;;;;;18.51;100.00;92456.34;5018155;28;20037;-78
2022/08/17 00:41:16;;;;;;;40.67;19.58;;;;;;;18.49;100.00;92464.63;5022387;28;20041;-78
2022/08/17 00:43:48;;;;;;;40.30;20.48;;;;;;;18.52;100.00;92461.28;5036277;28;20045;-78
2022/08/17 00:46:25;;;;;;;;;;;;;;;18.48;100.00;92455.13;5042244;28;20064;-77
2022/08/17 00:48:51;;;;;;;38.42;19.15;;;;;;;18.45;100.00;92450.50;5042912;28;19913;-78
2022/08/17 00:51:52;;;;;;;40.22;20.00;;;;;;;18.42;100.00;92443.22;5036425;28;20033;-76
2022/08/17 00:54:26;;;;;;;40.07;18.47;;;;;;;18.42;100.00;92445.88;5007516;28;20502;-77
2022/08/17 00:57:06;;;;;;;44.13;18.40;;;;;;;18.38;100.00;92447.66;5053854;28;20021;-77
2022/08/17 00:59:37;;;;;;;35.83;18.02;;;;;;;18.37;100.00;92440.78;5015553;28;20040;-77
2022/08/17 01:02:05;;;;;;;38.70;15.87;;;;;;;18.34;100.00;92446.78;5054161;28;20052;-78
2022/08/17 01:04:32;;;;;;;27.48;12.35;;;;;;;18.24;97.87;92441.94;5050821;28;20288;-77
2022/08/17 01:07:00;;;;;;;21.17;11.80;;;;;;;18.10;94.75;92452.88;5048196;28;20040;-77
2022/08/17 01:09:26;;;;;;;22.92;12.00;;;;;;;18.05;96.85;92445.94;5032965;28;20039;-77
2022/08/17 01:11:52;;;;;;;29.20;13.30;;;;;;;18.09;97.33;92446.03;5036217;28;20037;-77
2022/08/17 01:14:22;;;;;;;26.90;13.48;;;;;;;18.06;97.85;92452.78;5054050;28;20025;-77
2022/08/17 01:16:50;;;;;;;33.97;14.73;;;;;;;17.98;100.00;92445.72;5054359;28;20079;-77
2022/08/17 01:19:23;;;;;;;31.38;14.93;;;;;;;17.99;100.00;92435.88;5050014;28;20029;-78
2022/08/17 01:21:58;;;;;;;27.55;14.48;;;;;;;17.99;100.00;92435.88;5054894;28;20048;-78
2022/08/17 01:24:24;;;;;;;31.98;15.27;;;;;;;18.13;99.23;92438.22;5056073;28;20447;-78
2022/08/17 01:26:50;;;;;;;35.42;16.35;;;;;;;17.99;100.00;92441.19;5021571;28;20124;-78
2022/08/17 01:29:15;;;;;;;36.30;15.80;;;;;;;17.90;100.00;92428.09;5054252;28;20033;-77
2022/08/17 01:31:51;;;;;;;37.33;17.00;;;;;;;17.84;100.00;92437.34;5036288;28;20051;-77
2022/08/17 01:34:18;;;;;;;32.63;15.75;;;;;;;17.84;100.00;92440.00;5036557;28;20037;-77
2022/08/17 01:36:46;;;;;;;37.00;16.73;;;;;;;17.84;100.00;92440.00;5055804;28;20437;-77
2022/08/17 01:39:37;;;;;;;37.80;16.00;;;;;;;17.84;100.00;92438.13;5055379;28;20108;-78
2022/08/17 01:42:23;;;;;;;32.92;15.23;;;;;;;17.85;100.00;92446.81;5004363;28;20063;-78
2022/08/17 01:44:53;;;;;;;35.40;15.93;;;;;;;17.83;100.00;92438.44;5035432;28;20060;-78
2022/08/17 01:47:19;;;;;;;35.47;17.08;;;;;;;17.83;100.00;92425.19;5010086;28;20205;-77
2022/08/17 01:49:44;;;;;;;33.22;14.73;;;;;;;17.84;100.00;92424.88;5036230;28;20136;-78
2022/08/17 01:52:11;;;;;;;24.92;13.18;;;;;;;17.74;100.00;92429.81;5035090;28;20063;-78
2022/08/17 01:54:40;;;;;;;36.72;14.73;;;;;;;17.67;100.00;92431.16;5055290;28;20055;-78
2022/08/17 01:57:06;;;;;;;26.70;14.48;;;;;;;17.67;100.00;92436.44;5053511;28;20475;-78
2022/08/17 01:59:31;;;;;;;37.08;15.98;;;;;;;17.67;100.00;92436.44;5037279;28;20103;-77
2022/08/17 02:01:57;;;;;;;37.72;15.45;;;;;;;17.69;100.00;92439.50;5050457;28;20036;-77
2022/08/17 02:04:22;;;;;;;26.08;13.55;;;;;;;17.63;100.00;92450.66;5036370;28;20171;-78
2022/08/17 02:06:48;;;;;;;38.08;14.95;;;;;;;17.59;100.00;92450.56;5055081;28;20037;-78
2022/08/17 02:09:14;;;;;;;32.05;14.75;;;;;;;17.56;100.00;92445.94;5052992;28;20490;-78
2022/08/17 02:11:39;;;;;;;31.02;15.38;;;;;;;17.54;100.00;92442.84;5037342;28;20502;-78
2022/08/17 02:14:07;;;;;;;38.90;15.60;;;;;;;17.56;100.00;92445.94;5035460;28;20465;-78
2022/08/17 02:16:36;;;;;;;30.50;13.60;;;;;;;17.56;100.00;92445.13;5053672;28;20073;-78
2022/08/17 02:19:02;;;;;;;35.10;13.95;;;;;;;17.55;100.00;92443.59;5035849;28;20021;-77
2022/08/17 02:21:28;;;;;;;31.95;13.57;;;;;;;17.57;100.00;92441.41;5036021;28;20029;-79
2022/08/17 02:23:55;;;;;;;28.58;13.15;;;;;;;17.60;100.00;92441.50;5039593;28;20538;-77
2022/08/17 02:26:20;;;;;;;25.00;12.40;;;;;;;17.59;100.00;92441.84;5031613;28;20140;-77
2022/08/17 02:28:46;;;;;;;21.10;11.18;;;;;;;17.57;100.00;92439.53;5022547;28;20021;-76
2022/08/17 02:31:12;;;;;;;24.65;11.80;;;;;;;17.54;100.00;92426.97;5052205;28;20068;-78
2022/08/17 02:33:38;;;;;;;23.60;11.98;;;;;;;17.55;100.00;92427.72;5031761;28;20036;-78
2022/08/17 02:36:07;;;;;;;19.25;11.50;;;;;;;17.55;100.00;92425.06;5035538;28;20029;-78
2022/08/17 02:38:34;;;;;;;22.33;10.70;;;;;;;17.54;99.86;92416.38;5033123;28;20512;-78
2022/08/17 02:40:59;;;;;;;27.52;10.80;;;;;;;17.53;99.58;92422.75;5052679;28;20064;-78
2022/08/17 02:43:27;;;;;;;23.13;11.10;;;;;;;17.53;99.47;92419.34;5028661;28;20025;-78
2022/08/17 02:45:53;;;;;;;19.83;10.30;;;;;;;17.55;99.53;92412.59;5052883;28;20037;-79
2022/08/17 02:48:19;;;;;;;22.02;10.27;;;;;;;17.51;99.22;92414.38;5036556;28;20037;-78
2022/08/17 02:50:45;;;;;;;24.15;10.50;;;;;;;17.50;99.35;92414.72;5020374;28;20044;-78
2022/08/17 02:53:11;;;;;;;23.55;11.15;;;;;;;17.46;100.00;92411.94;5018993;28;20490;-78
2022/08/17 02:55:39;;;;;;;21.52;10.70;;;;;;;17.44;100.00;92403.56;5049546;28;20116;-78
2022/08/17 02:58:06;;;;;;;23.42;10.52;;;;;;;17.42;100.00;92397.81;5033617;28;20045;-78
2022/08/17 03:00:39;;;;;;;20.85;11.00;;;;;;;17.43;100.00;92402.03;5018076;28;20101;-78
2022/08/17 03:03:06;;;;;;;25.48;11.00;;;;;;;17.46;100.00;92398.72;5034871;28;20041;-78
2022/08/17 03:05:34;;;;;;;24.88;11.48;;;;;;;17.42;100.00;92393.31;5018885;28;20082;-78
2022/08/17 03:08:00;;;;;;;26.17;12.65;;;;;;;17.42;100.00;92398.59;5043469;28;20491;-78
2022/08/17 03:10:26;;;;;;;24.17;12.27;;;;;;;17.37;100.00;92390.13;5039019;28;20060;-78
2022/08/17 03:12:53;;;;;;;27.63;12.13;;;;;;;17.39;100.00;92388.69;5034994;28;20366;-78
2022/08/17 03:15:24;;;;;;;24.25;12.63;;;;;;;17.40;100.00;92394.75;5005920;28;20034;-78
2022/08/17 03:17:51;;;;;;;28.52;12.60;;;;;;;17.43;100.00;92408.09;5036793;28;20033;-78
2022/08/17 03:20:18;;;;;;;23.05;12.38;;;;;;;17.41;100.00;92399.72;5018458;28;20113;-78
2022/08/17 03:22:48;;;;;;;23.70;10.88;;;;;;;17.37;100.00;92403.34;5036835;28;20049;-78
2022/08/17 03:25:20;;;;;;;21.58;11.00;;;;;;;17.33;100.00;92402.44;5017923;28;20136;-78
2022/08/17 03:27:46;;;;;;;27.52;11.68;;;;;;;17.34;100.00;92409.28;5052227;28;20036;-79
2022/08/17 03:30:12;;;;;;;24.20;10.68;;;;;;;17.32;100.00;92393.00;5053385;28;20107;-78
2022/08/17 03:32:40;;;;;;;22.52;10.63;;;;;;;17.31;100.00;92392.19;5052094;28;20040;-78
2022/08/17 03:35:06;;;;;;;25.90;10.05;;;;;;;17.27;100.00;92378.88;5053919;28;20039;-78
2022/08/17 03:37:32;;;;;;;22.55;10.65;;;;;;;17.23;100.00;92367.41;5033128;28;20031;-78
2022/08/17 03:39:57;;;;;;;17.27;8.75;;;;;;;17.24;100.00;92373.47;5034021;28;20557;-79
2022/08/17 03:42:26;;;;;;;19.27;10.40;;;;;;;17.18;99.93;92364.97;5034397;28;20056;-78
2022/08/17 03:44:54;;;;;;;15.60;9.18;;;;;;;17.13;99.36;92359.88;5054873;28;20029;-79
2022/08/17 03:58:19;;;;;;;16.02;8.55;;;;;;;16.85;100.00;92351.81;5055156;28;20033;-79
2022/08/17 04:00:45;;;;;;;17.75;8.38;;;;;;;16.82;100.00;92355.13;5043708;28;20064;-78
2022/08/17 04:03:12;;;;;;;15.88;7.70;;;;;;;16.77;100.00;92358.69;5043959;28;20394;-78
2022/08/17 04:05:38;;;;;;;16.13;8.48;;;;;;;16.78;100.00;92370.81;5042686;28;20037;-78
2022/08/17 04:08:04;;;;;;;17.38;8.15;;;;;;;16.79;100.00;92382.16;5025529;28;20048;-78
2022/08/17 04:10:30;;;;;;;18.90;8.10;;;;;;;16.77;100.00;92369.25;5032336;28;20052;-78
2022/08/17 04:13:00;;;;;;;17.77;8.68;;;;;;;16.78;100.00;92375.34;5019381;28;20120;-79
2022/08/17 04:15:26;;;;;;;14.10;8.13;;;;;;;16.77;100.00;92379.06;5038520;28;20097;-78
2022/08/17 04:17:52;;;;;;;15.32;8.70;;;;;;;16.77;100.00;92385.13;5036222;28;20037;-78
2022/08/17 04:20:20;;;;;;;14.32;8.43;;;;;;;16.78;100.00;92389.31;5058765;28;20032;-78
2022/08/17 04:22:58;;;;;;;16.05;8.55;;;;;;;16.80;100.00;92373.94;5035799;28;20068;-79
2022/08/17 04:25:26;;;;;;;15.15;8.38;;;;;;;16.81;100.00;92388.69;5059304;28;20048;-78
2022/08/17 04:27:52;;;;;;;13.73;7.72;;;;;;;16.83;100.00;92410.28;5041959;28;20076;-79
2022/08/17 04:30:18;;;;;;;19.48;10.35;;;;;;;16.88;100.00;92413.84;5059219;28;20113;-78
2022/08/17 04:32:56;;;;;;;22.65;12.05;;;;;;;16.88;100.00;92403.25;5045964;28;20064;-78
2022/08/17 04:35:26;;;;;;;20.15;10.70;;;;;;;16.90;100.00;92403.72;5032743;28;20033;-77
2022/08/17 04:37:52;;;;;;;15.00;9.15;;;;;;;16.92;100.00;92402.28;5049539;28;20026;-78
2022/08/17 04:43:09;;;;;;;20.70;11.38;;;;;;;16.96;100.00;92408.47;5038651;28;20041;-78
2022/08/17 04:45:47;;;;;;;20.83;10.55;;;;;;;17.01;100.00;92420.69;5046244;28;20029;-78
2022/08/17 04:48:13;;;;;;;17.30;9.85;;;;;;;17.05;100.00;92426.88;5020040;28;20081;-78
2022/08/17 04:50:49;;;;;;;14.60;8.60;;;;;;;17.05;100.00;92432.94;5005767;28;20121;-79
2022/08/17 04:53:18;;;;;;;17.73;9.52;;;;;;;17.00;100.00;92435.00;5056196;28;20397;-78
2022/08/17 04:55:44;;;;;;;18.85;9.45;;;;;;;16.87;100.00;92446.66;5056093;28;20049;-79
2022/08/17 04:58:10;;;;;;;15.70;9.82;;;;;;;16.88;100.00;92451.59;5034188;28;20039;-78
2022/08/17 05:00:37;;;;;;;16.70;10.13;;;;;;;16.79;100.00;92456.97;5048000;28;20135;-78
2022/08/17 05:03:03;;;;;;;18.58;9.40;;;;;;;16.80;100.00;92457.78;5053214;28;20041;-79
2022/08/17 05:05:33;;;;;;;19.27;9.88;;;;;;;16.84;100.00;92464.72;5052648;28;20482;-78
2022/08/17 05:08:01;;;;;;;23.13;10.80;;;;;;;16.88;100.00;92479.94;5051103;28;20029;-78
2022/08/17 05:10:30;;;;;;;20.02;10.20;;;;;;;16.89;100.00;92484.09;5054952;28;20033;-79
2022/08/17 05:13:00;;;;;;;18.75;9.73;;;;;;;16.91;100.00;92481.91;5046713;28;20048;-77
2022/08/17 05:15:27;;;;;;;15.45;9.48;;;;;;;16.95;100.00;92485.44;5044027;28;20029;-77
2022/08/17 05:17:53;;;;;;;16.98;9.02;;;;;;;16.98;100.00;92487.47;5016214;28;20402;-77
2022/08/17 05:20:19;;;;;;;15.15;9.32;;;;;;;17.03;100.00;92479.31;5045790;28;20083;-79
2022/08/17 05:22:51;;;;;;;13.93;8.98;;;;;;;17.06;100.00;92471.50;5027944;28;20033;-78
2022/08/17 05:25:22;;;;;;;13.07;8.40;;;;;;;17.02;100.00;92475.13;5041379;28;20029;-78
2022/08/17 05:27:47;;;;;;;13.55;7.72;;;;;;;17.01;100.00;92476.22;5049630;28;20025;-79
2022/08/17 05:30:15;;;;;;;13.50;8.25;;;;;;;17.01;100.00;92486.81;5048462;28;20159;-78
2022/08/17 05:33:05;;;;;;;13.20;8.40;;;;;;;17.02;100.00;92486.50;5047980;28;20045;-79
2022/08/17 05:35:34;;;;;;;10.73;7.03;;;;;;;17.04;100.00;92483.50;5036071;28;20491;-78
2022/08/17 05:38:00;;;;;;;11.95;7.20;;;;;;;17.01;100.00;92490.22;5053925;28;20025;-79
2022/08/17 05:40:26;;;;;;;12.85;7.32;;;;;;;16.99;100.00;92484.47;5034044;28;20041;-78
2022/08/17 05:43:03;;;;;;;10.70;7.47;;;;;;;17.02;100.00;92506.84;5041055;28;20033;-77
2022/08/17 05:45:30;;;;;;;9.88;6.50;;;;;;;17.05;100.00;92506.22;5036281;28;20423;-78
2022/08/17 05:47:56;;;;;;;11.35;7.15;;;;;;;17.09;100.00;92508.97;5037210;28;20494;-78
2022/08/17 05:50:27;;;;;;;10.85;6.68;;;;;;;17.05;100.00;92509.63;5036563;28;20029;-79
2022/08/17 05:53:13;;;;;;;9.45;6.78;;;;;;;17.05;100.00;92508.84;5047155;28;20112;-78
2022/08/17 05:55:41;;;;;;;11.05;6.63;;;;;;;17.06;100.00;92503.22;5053631;28;20040;-77
2022/08/17 05:58:28;;;;;;;11.70;6.80;;;;;;;17.10;100.00;92510.53;5036932;28;20116;-78
2022/08/17 06:01:02;;;;;;;10.80;6.38;;;;;;;17.13;100.00;92510.63;5036894;28;20067;-78
2022/08/17 06:04:19;;;;;;;10.50;5.88;;;;;;;17.15;100.00;92511.09;5054189;28;20498;-78
2022/08/17 06:07:03;;;;;;;8.65;5.82;;;;;;;17.16;100.00;92502.06;4999771;28;20080;-77
2022/08/17 06:09:49;;;;;;;13.00;6.00;;;;;;;17.21;100.00;92498.44;5016524;28;20033;-78
2022/08/17 06:12:47;;;;;;;12.18;6.10;;;;;;;17.23;100.00;92499.66;5034249;28;20037;-78
2022/08/17 06:16:00;;;;;;;8.38;5.63;;;;;;;17.25;100.00;92505.41;5038182;28;20076;-78
2022/08/17 06:18:31;;;;;;;9.27;5.43;;;;;;;17.33;100.00;92516.97;5039521;28;20067;-79
2022/08/17 06:21:01;;;;;;;10.23;5.43;;;;;;;17.39;100.00;92517.56;5042128;28;20079;-78
2022/08/17 06:23:38;;;;;;;8.43;5.10;;;;;;;17.41;100.00;92515.38;5039346;28;20044;-78
2022/08/17 06:26:11;;;;;;;8.55;5.05;;;;;;;17.50;100.00;92523.97;5049259;28;20072;-78
2022/08/17 06:28:50;;;;;;;6.72;4.63;;;;;;;17.62;100.00;92517.94;5053411;28;20044;-78
2022/08/17 06:31:26;;;;;;;10.75;4.97;;;;;;;17.67;100.00;92525.66;5049279;28;20041;-78
2022/08/17 06:33:53;;;;;;;8.40;5.18;;;;;;;17.74;100.00;92527.75;5034691;28;20330;-78
2022/08/17 06:36:39;;;;;;;11.45;4.85;;;;;;;17.78;100.00;92526.00;5043510;28;20040;-78
2022/08/17 06:39:25;;;;;;;8.73;4.75;;;;;;;17.83;100.00;92523.97;5019278;28;20036;-78
2022/08/17 06:42:28;;;;;;;9.13;5.07;;;;;;;17.91;100.00;92524.94;5035648;28;20056;-79
2022/08/17 06:45:09;;;;;;;;;;;;;;;17.92;100.00;92515.13;4993142;28;20080;-77
2022/08/17 06:47:54;;;;;;;8.52;4.60;;;;;;;17.97;100.00;92507.75;5025972;28;19952;-78
2022/08/17 06:50:33;;;;;;;7.88;5.05;;;;;;;18.05;100.00;92508.72;5040761;28;20100;-78
2022/08/17 06:53:12;;;;;;;9.65;4.82;;;;;;;18.12;100.00;92506.28;5042425;28;20033;-78
2022/08/17 06:55:51;;;;;;;7.85;4.95;;;;;;;18.20;100.00;92504.66;5043124;28;20470;-77
2022/08/17 06:58:21;;;;;;;8.50;4.90;;;;;;;18.21;100.00;92498.22;5046832;28;20040;-80
2022/08/17 07:00:49;;;;;;;10.15;4.97;;;;;;;18.33;100.00;92482.34;5047813;28;20037;-78
2022/08/17 07:03:36;;;;;;;8.18;4.55;;;;;;;18.49;100.00;92472.56;5053985;28;20421;-79
2022/08/17 07:06:13;;;;;;;9.85;4.68;;;;;;;18.71;100.00;92470.50;5043029;28;20048;-78
2022/08/17 07:08:57;;;;;;;8.25;4.63;;;;;;;18.91;100.00;92490.81;5035866;28;20030;-78
2022/08/17 07:11:32;;;;;;;8.45;4.50;;;;;;;19.08;100.00;92486.34;5017400;28;20049;-79
2022/08/17 07:14:12;;;;;;;7.45;4.35;;;;;;;19.21;100.00;92489.72;5047454;28;20029;-79
2022/08/17 07:16:47;;;;;;;7.03;4.38;;;;;;;19.32;100.00;92486.22;5027172;28;20025;-79
2022/08/17 07:19:15;;;;;;;6.40;4.50;;;;;;;19.42;100.00;92481.53;5039876;28;20101;-79
2022/08/17 07:22:07;;;;;;;8.88;4.80;;;;;;;19.49;100.00;92493.06;5043266;28;20029;-79
2022/08/17 07:24:46;;;;;;;7.40;4.78;;;;;;;19.59;100.00;92501.66;5020300;28;20034;-79
2022/08/17 07:27:26;;;;;;;8.23;4.40;;;;;;;19.66;98.87;92492.00;5041337;28;20553;-79
2022/08/17 07:30:15;;;;;;;6.38;4.40;;;;;;;19.76;97.54;92480.88;5050630;28;20040;-79
2022/08/17 07:32:45;;;;;;;7.75;4.55;;;;;;;19.92;97.08;92482.75;5019601;28;20043;-79
2022/08/17 07:35:17;;;;;;;9.38;4.82;;;;;;;20.09;95.85;92484.28;5047461;28;20505;-78
2022/08/17 07:38:06;;;;;;;7.90;4.63;;;;;;;20.29;93.30;92480.56;5054713;28;20028;-80
2022/08/17 07:40:38;;;;;;;8.90;4.80;;;;;;;20.48;92.38;92471.09;5029206;28;20115;-79
2022/08/17 07:43:13;;;;;;;8.45;4.90;;;;;;;20.67;91.65;92478.34;5053825;28;20036;-79
2022/08/17 07:49:02;;;;;;;8.25;4.55;;;;;;;20.93;88.94;92502.44;5056800;28;20067;-80
2022/08/17 07:51:43;;;;;;;8.05;4.55;;;;;;;21.12;87.95;92508.88;5041071;28;20521;-80
2022/08/17 07:54:14;;;;;;;10.23;5.07;;;;;;;21.40;87.85;92514.78;5026530;28;20052;-80
2022/08/17 07:56:43;;;;;;;8.27;4.68;;;;;;;21.59;85.54;92518.50;5060779;28;20032;-80
2022/08/17 07:59:12;;;;;;;7.72;4.30;;;;;;;21.61;81.71;92525.03;5061016;28;20170;-79
2022/08/17 08:01:39;;;;;;;8.50;4.43;;;;;;;21.59;81.96;92537.16;5052605;28;20037;-80
2022/08/17 08:04:22;;;;;;;9.02;4.38;;;;;;;21.55;81.09;92539.78;5047161;28;20037;-79
2022/08/17 08:06:53;;;;;;;11.68;4.60;;;;;;;21.67;81.12;92541.50;5050517;28;20157;-80
2022/08/17 08:09:31;;;;;;;7.80;4.43;;;;;;;21.60;84.68;92555.47;5045050;28;20063;-80
2022/08/17 08:11:59;;;;;;;7.63;4.55;;;;;;;21.47;84.85;92556.72;5056993;28;20123;-80
2022/08/17 08:14:37;;;;;;;8.73;4.63;;;;;;;21.26;83.96;92557.06;5028314;28;20032;-81
2022/08/17 08:17:07;;;;;;;9.23;4.53;;;;;;;21.11;84.73;92557.91;5058732;28;20041;-80
2022/08/17 08:19:33;;;;;;;7.53;4.13;;;;;;;21.04;86.19;92557.78;5043337;28;20123;-80
2022/08/17 08:22:06;;;;;;;10.15;4.75;;;;;;;21.11;86.24;92556.00;5059268;28;20443;-80
2022/08/17 08:24:47;;;;;;;7.70;4.40;;;;;;;21.36;86.11;92559.16;5032221;28;20037;-79
2022/08/17 08:27:28;;;;;;;6.50;4.57;;;;;;;21.73;87.38;92547.28;5051557;28;20052;-80
2022/08/17 08:30:16;;;;;;;7.85;4.60;;;;;;;22.23;84.06;92551.59;5024658;28;20063;-80
2022/08/17 08:33:08;;;;;;;9.98;4.57;;;;;;;22.65;80.11;92544.59;5061207;28;20530;-81
2022/08/17 08:35:52;;;;;;;8.00;4.28;;;;;;;22.93;76.46;92541.53;5055822;28;20044;-80
2022/08/17 08:38:42;;;;;;;10.18;5.30;;;;;;;22.85;79.12;92529.22;5059599;28;20033;-79
2022/08/17 08:41:37;;;;;;;8.32;6.10;;;;;;;22.51;82.92;92534.50;5024640;28;20059;-79
2022/08/17 08:44:24;;;;;;;9.70;5.82;;;;;;;22.18;84.57;92524.47;5029577;28;20029;-80
2022/08/17 08:47:25;;;;;;;8.77;5.32;;;;;;;21.65;84.82;92530.44;5057523;28;20490;-80
2022/08/17 08:49:57;;;;;;;8.00;5.50;;;;;;;21.93;84.62;92532.03;5028409;28;20055;-81
2022/08/17 08:52:44;;;;;;;12.13;6.55;;;;;;;21.82;85.16;92531.88;5033889;28;20033;-80
2022/08/17 08:55:48;;;;;;;8.10;5.28;;;;;;;21.97;85.27;92554.19;5041297;28;20102;-78
2022/08/17 08:58:18;;;;;;;8.45;5.45;;;;;;;22.10;84.39;92555.56;5042469;28;20076;-80
2022/08/17 09:00:49;;;;;;;12.13;5.63;;;;;;;22.24;82.67;92550.47;5049666;28;20060;-79
2022/08/17 09:03:18;;;;;;;10.75;5.65;;;;;;;22.22;83.39;92541.28;5039459;28;20037;-79
2022/08/17 09:05:54;;;;;;;8.68;4.80;;;;;;;22.44;81.42;92548.47;5039618;28;20390;-79
2022/08/17 09:08:44;;;;;;;6.65;4.45;;;;;;;22.48;77.60;92553.88;5052310;28;20033;-79
2022/08/17 09:11:28;;;;;;;8.32;4.63;;;;;;;22.43;79.04;92557.63;5058421;28;20043;-79
2022/08/17 09:13:53;;;;;;;9.45;4.53;;;;;;;22.35;79.62;92549.88;5042950;28;20025;-80
2022/08/17 09:16:35;;;;;;;8.23;4.95;;;;;;;22.43;78.74;92548.88;5054124;28;20029;-79
2022/08/17 09:19:11;;;;;;;9.57;5.20;;;;;;;22.54;77.54;92549.00;5040938;28;20041;-79
2022/08/17 09:21:53;;;;;;;9.07;5.00;;;;;;;22.61;76.56;92541.13;5059234;28;20064;-79
2022/08/17 09:24:27;;;;;;;;;;;;;;;22.67;76.35;92542.34;5059434;28;20037;-79
2022/08/17 09:27:01;;;;;;;10.95;4.60;;;;;;;22.99;73.63;92547.31;5059381;28;19916;-79
2022/08/17 09:29:33;;;;;;;11.15;4.32;;;;;;;23.10;73.62;92560.84;5060846;28;20037;-80
2022/08/17 09:32:04;;;;;;;9.55;4.93;;;;;;;23.28;72.83;92564.50;5060910;28;20056;-80
2022/08/17 09:34:41;;;;;;;7.43;4.40;;;;;;;23.47;73.70;92556.34;5024051;28;20113;-80
2022/08/17 09:37:42;;;;;;;8.60;4.90;;;;;;;23.16;76.02;92565.50;5041287;28;20435;-80
2022/08/17 09:40:24;;;;;;;11.82;5.78;;;;;;;22.65;77.82;92558.72;5039528;28;20043;-80
2022/08/17 09:42:58;;;;;;;8.80;5.20;;;;;;;22.47;78.45;92567.56;5023112;28;20044;-79
2022/08/17 09:45:49;;;;;;;12.57;6.22;;;;;;;22.37;80.09;92568.97;5052535;28;20029;-79
2022/08/17 09:48:26;;;;;;;8.02;6.20;;;;;;;22.22;81.80;92568.75;5050757;28;20052;-79
2022/08/17 09:51:24;;;;;;;8.70;6.00;;;;;;;22.45;81.17;92573.28;5049740;28;20406;-78
2022/08/17 09:53:50;;;;;;;8.05;5.90;;;;;;;22.95;79.19;92570.56;5034160;28;20051;-79
2022/08/17 09:56:31;;;;;;;8.95;5.55;;;;;;;23.15;76.90;92560.53;5037065;28;20037;-80
2022/08/17 09:59:20;;;;;;;8.73;5.40;;;;;;;23.39;74.70;92556.63;5042342;28;20120;-78
2022/08/17 10:02:18;;;;;;;9.13;5.68;;;;;;;23.15;76.41;92563.22;5035019;28;20041;-80
2022/08/17 10:05:05;;;;;;;10.38;5.70;;;;;;;23.02;76.03;92558.09;5038682;28;20052;-78
2022/08/17 10:07:39;;;;;;;8.05;5.05;;;;;;;23.40;74.68;92552.81;5033524;28;20036;-78
2022/08/17 10:10:06;;;;;;;7.65;4.97;;;;;;;23.55;74.88;92543.81;5022416;28;20430;-81
2022/08/17 10:12:55;;;;;;;9.43;5.13;;;;;;;23.61;76.23;92550.38;5045676;28;20037;-79
2022/08/17 10:15:47;;;;;;;13.90;5.20;;;;;;;23.53;77.05;92553.34;5056320;28;20082;-79
2022/08/17 10:18:20;;;;;;;7.33;5.40;;;;;;;23.24;77.82;92547.69;5038568;28;20036;-79
2022/08/17 10:26:11;;;;;;;15.02;5.55;;;;;;;23.12;77.77;92550.56;5058504;28;20040;-81
2022/08/17 10:26:39;;;;;;;10.70;5.97;;;;;;;22.77;79.07;92556.97;5037990;28;20502;-78
2022/08/17 10:29:26;;;;;;;9.38;5.65;;;;;;;22.83;79.89;92550.16;5020702;28;20033;-80
2022/08/17 10:32:02;;;;;;;9.32;5.72;;;;;;;23.04;78.58;92549.72;5057485;28;20032;-78
2022/08/17 10:34:54;;;;;;;9.45;5.20;;;;;;;23.44;77.71;92546.41;5056770;28;20493;-80
2022/08/17 10:37:28;;;;;;;8.77;5.85;;;;;;;23.70;74.95;92544.75;5029734;28;20434;-80
2022/08/17 10:40:20;;;;;;;7.75;5.35;;;;;;;23.66;68.02;92536.72;5048987;28;20037;-80
2022/08/17 10:42:57;;;;;;;8.45;4.65;;;;;;;24.01;64.19;92540.88;5037721;28;20049;-82
2022/08/17 10:45:34;;;;;;;11.68;5.88;;;;;;;24.16;70.99;92533.75;5046704;28;20397;-80
2022/08/17 10:48:06;;;;;;;8.98;5.25;;;;;;;24.03;70.47;92529.81;5038836;28;20079;-82
2022/08/17 10:51:02;;;;;;;7.25;5.07;;;;;;;24.49;69.09;92542.78;5019737;28;20164;-80
2022/08/17 10:53:30;;;;;;;6.93;4.63;;;;;;;24.64;66.45;92546.34;5057207;28;20057;-79
2022/08/17 10:56:21;;;;;;;7.70;4.18;;;;;;;24.77;61.33;92550.25;5056705;28;20048;-80
2022/08/17 10:58:52;;;;;;;7.65;4.60;;;;;;;24.86;62.19;92541.91;5044996;28;20136;-80
2022/08/17 11:01:42;;;;;;;8.73;5.55;;;;;;;24.49;68.66;92535.53;5037079;28;20049;-79
2022/08/17 11:04:17;;;;;;;10.50;5.65;;;;;;;24.10;70.40;92529.88;5033296;28;20041;-80
2022/08/17 11:07:01;;;;;;;7.30;5.20;;;;;;;24.19;67.14;92522.31;5019836;28;20117;-80
2022/08/17 11:09:45;;;;;;;10.75;6.35;;;;;;;24.37;70.64;92529.69;5037727;28;20129;-80
2022/08/17 11:12:46;;;;;;;10.70;6.07;;;;;;;24.16;68.26;92538.31;5038187;28;20040;-80
2022/08/17 11:15:16;;;;;;;8.52;6.30;;;;;;;24.10;72.92;92530.63;5002715;28;20029;-80
2022/08/17 11:18:00;;;;;;;10.00;5.30;;;;;;;24.05;70.86;92538.25;5044463;28;20024;-79
2022/08/17 11:20:36;;;;;;;10.23;4.72;;;;;;;23.99;67.97;92535.13;5039280;28;20112;-80
2022/08/17 11:23:24;;;;;;;9.60;5.70;;;;;;;24.24;71.55;92529.97;5024940;28;20033;-80
2022/08/17 11:26:02;;;;;;;10.32;5.72;;;;;;;24.15;73.70;92537.53;5010080;28;20036;-78
2022/08/17 11:28:43;;;;;;;11.00;5.75;;;;;;;23.88;74.99;92540.38;5063114;28;20033;-78
2022/08/17 11:31:28;;;;;;;11.27;5.75;;;;;;;23.67;77.20;92553.50;5045333;28;20037;-81
2022/08/17 11:33:55;;;;;;;10.65;5.72;;;;;;;23.54;76.89;92557.56;5062742;28;20033;-78
2022/08/17 11:36:33;;;;;;;9.45;5.28;;;;;;;23.39;76.93;92552.03;5027574;28;20028;-81
2022/08/17 11:39:40;;;;;;;9.63;5.10;;;;;;;23.59;72.35;92543.88;5042072;28;20036;-80
2022/08/17 11:42:30;;;;;;;12.88;5.68;;;;;;;23.65;74.42;92534.41;5014929;28;20067;-81
2022/08/17 11:45:23;;;;;;;7.50;5.07;;;;;;;23.70;74.47;92518.03;5059109;28;20395;-80
2022/08/17 11:51:32;;;;;;;8.20;5.00;;;;;;;24.42;71.10;92526.66;5035261;28;20076;-81
2022/08/17 11:54:01;;;;;;;8.23;5.00;;;;;;;24.54;67.95;92526.38;5056052;28;20396;-81
2022/08/17 11:56:41;;;;;;;11.50;5.22;;;;;;;24.86;65.14;92531.97;5044779;28;20036;-81
2022/08/17 11:59:29;;;;;;;8.07;4.80;;;;;;;24.99;63.49;92532.38;5044797;28;20512;-81
2022/08/17 12:01:55;;;;;;;10.00;4.90;;;;;;;24.96;62.46;92535.81;5062927;28;20120;-81
2022/08/17 12:04:28;;;;;;;11.52;4.55;;;;;;;25.24;60.28;92540.59;5053308;28;20040;-82
2022/08/17 12:07:20;;;;;;;8.63;4.53;;;;;;;25.48;60.85;92533.75;5043168;28;20103;-82
2022/08/17 12:09:49;;;;;;;11.52;5.10;;;;;;;25.70;61.01;92529.22;5043238;28;20072;-82
2022/08/17 12:12:32;;;;;;;7.40;4.82;;;;;;;26.11;60.08;92533.53;5042891;28;20025;-82
2022/08/17 12:15:00;;;;;;;10.13;5.10;;;;;;;25.93;57.06;92541.56;5055238;28;20112;-82
2022/08/17 12:17:28;;;;;;;9.43;4.65;;;;;;;25.49;58.17;92527.28;5046145;28;20043;-81
2022/08/17 12:20:07;;;;;;;10.57;5.55;;;;;;;25.04;59.58;92521.34;5058229;28;20448;-80